Terminal Aerodrome Forecast
Issued by NWS Cleveland, OH

Home | Current Version | Previous Version | Text Only | Print | Product List | Glossary Off
Versions: 1 2 3 4 5 6 7 8 9 10 11 12 13 14 15 16 17 18 19 20 21 22 23 24 25 26 27 28

094
FTUS41 KCLE 200540
TAFCAK
TAF
KCAK 200540Z 2006/2106 13008KT 5SM BR SCT005 OVC150
     FM201100 13010KT 4SM -RA BR OVC015
     FM201300 13010KT 4SM -RA BR OVC007
     FM201600 20010KT 5SM BR OVC005
     FM202200 20006KT P6SM OVC012
     FM210300 20004KT 4SM BR OVC005=

USA.gov is the U.S. government's official web portal to all federal, state and local government web resources and services.